sensor_id;sensor_type;location;lat;lon;timestamp;P1;durP1;ratioP1;P2;durP2;ratioP2
3795;SDS011;1913;50.660;7.834;2022-07-05T00:02:15;12.87;;;2.97;;
3795;SDS011;1913;50.660;7.834;2022-07-05T00:04:41;4.77;;;3.63;;
3795;SDS011;1913;50.660;7.834;2022-07-05T00:07:07;3.27;;;2.93;;
3795;SDS011;1913;50.660;7.834;2022-07-05T00:09:46;4.93;;;2.83;;
3795;SDS011;1913;50.660;7.834;2022-07-05T00:12:13;4.23;;;2.70;;
3795;SDS011;1913;50.660;7.834;2022-07-05T00:14:39;4.83;;;2.87;;
3795;SDS011;1913;50.660;7.834;2022-07-05T00:17:06;3.40;;;3.00;;
3795;SDS011;1913;50.660;7.834;2022-07-05T00:19:31;9.10;;;3.03;;
3795;SDS011;1913;50.660;7.834;2022-07-05T00:21:57;3.73;;;3.00;;
3795;SDS011;1913;50.660;7.834;2022-07-05T00:24:23;4.27;;;2.73;;
3795;SDS011;1913;50.660;7.834;2022-07-05T00:26:49;5.33;;;2.70;;
3795;SDS011;1913;50.660;7.834;2022-07-05T00:29:14;8.50;;;3.30;;
3795;SDS011;1913;50.660;7.834;2022-07-05T00:31:39;8.90;;;3.00;;
3795;SDS011;1913;50.660;7.834;2022-07-05T00:34:05;3.90;;;2.93;;
3795;SDS011;1913;50.660;7.834;2022-07-05T00:36:30;5.07;;;2.80;;
3795;SDS011;1913;50.660;7.834;2022-07-05T00:38:56;3.33;;;2.43;;
3795;SDS011;1913;50.660;7.834;2022-07-05T00:41:21;3.20;;;2.77;;
3795;SDS011;1913;50.660;7.834;2022-07-05T00:43:53;6.20;;;2.83;;
3795;SDS011;1913;50.660;7.834;2022-07-05T00:46:20;7.13;;;3.00;;
3795;SDS011;1913;50.660;7.834;2022-07-05T00:48:45;3.87;;;2.27;;
3795;SDS011;1913;50.660;7.834;2022-07-05T00:51:11;5.57;;;2.60;;
3795;SDS011;1913;50.660;7.834;2022-07-05T00:53:36;4.73;;;3.07;;
3795;SDS011;1913;50.660;7.834;2022-07-05T00:56:02;6.97;;;3.20;;
3795;SDS011;1913;50.660;7.834;2022-07-05T00:58:29;4.10;;;2.87;;
3795;SDS011;1913;50.660;7.834;2022-07-05T01:00:57;3.70;;;3.00;;
3795;SDS011;1913;50.660;7.834;2022-07-05T01:03:22;7.90;;;3.07;;
3795;SDS011;1913;50.660;7.834;2022-07-05T01:05:47;6.03;;;3.00;;
3795;SDS011;1913;50.660;7.834;2022-07-05T01:08:14;4.03;;;2.80;;
3795;SDS011;1913;50.660;7.834;2022-07-05T01:10:40;6.40;;;3.23;;
3795;SDS011;1913;50.660;7.834;2022-07-05T01:13:07;4.67;;;2.60;;
3795;SDS011;1913;50.660;7.834;2022-07-05T01:15:34;5.43;;;3.27;;
3795;SDS011;1913;50.660;7.834;2022-07-05T01:17:59;3.63;;;2.60;;
3795;SDS011;1913;50.660;7.834;2022-07-05T01:20:25;4.17;;;2.90;;
3795;SDS011;1913;50.660;7.834;2022-07-05T01:25:19;6.70;;;2.93;;
3795;SDS011;1913;50.660;7.834;2022-07-05T01:27:46;5.37;;;3.33;;
3795;SDS011;1913;50.660;7.834;2022-07-05T01:30:12;6.53;;;3.30;;
3795;SDS011;1913;50.660;7.834;2022-07-05T01:32:38;3.73;;;3.10;;
3795;SDS011;1913;50.660;7.834;2022-07-05T01:35:04;3.10;;;2.80;;
3795;SDS011;1913;50.660;7.834;2022-07-05T01:37:29;3.37;;;3.00;;
3795;SDS011;1913;50.660;7.834;2022-07-05T01:39:56;3.67;;;3.10;;
3795;SDS011;1913;50.660;7.834;2022-07-05T01:42:23;4.53;;;3.03;;
3795;SDS011;1913;50.660;7.834;2022-07-05T01:44:49;6.03;;;3.53;;
3795;SDS011;1913;50.660;7.834;2022-07-05T01:47:14;5.10;;;3.50;;
3795;SDS011;1913;50.660;7.834;2022-07-05T01:49:43;4.30;;;2.93;;
3795;SDS011;1913;50.660;7.834;2022-07-05T01:52:11;5.20;;;3.33;;
3795;SDS011;1913;50.660;7.834;2022-07-05T01:54:37;4.93;;;3.77;;
3795;SDS011;1913;50.660;7.834;2022-07-05T01:57:04;6.17;;;4.27;;
3795;SDS011;1913;50.660;7.834;2022-07-05T01:59:32;4.10;;;3.70;;
3795;SDS011;1913;50.660;7.834;2022-07-05T02:01:58;6.17;;;3.97;;
3795;SDS011;1913;50.660;7.834;2022-07-05T02:04:24;5.63;;;3.57;;
3795;SDS011;1913;50.660;7.834;2022-07-05T02:06:50;6.30;;;3.73;;
3795;SDS011;1913;50.660;7.834;2022-07-05T02:09:15;9.00;;;3.63;;
3795;SDS011;1913;50.660;7.834;2022-07-05T02:11:41;6.17;;;3.63;;
3795;SDS011;1913;50.660;7.834;2022-07-05T02:14:06;7.67;;;3.60;;
3795;SDS011;1913;50.660;7.834;2022-07-05T02:16:32;5.90;;;3.63;;
3795;SDS011;1913;50.660;7.834;2022-07-05T02:18:57;3.53;;;3.23;;
3795;SDS011;1913;50.660;7.834;2022-07-05T02:21:23;4.50;;;3.43;;
3795;SDS011;1913;50.660;7.834;2022-07-05T02:23:48;3.87;;;3.53;;
3795;SDS011;1913;50.660;7.834;2022-07-05T02:26:14;6.43;;;4.23;;
3795;SDS011;1913;50.660;7.834;2022-07-05T02:28:39;13.73;;;4.50;;
3795;SDS011;1913;50.660;7.834;2022-07-05T02:31:05;6.53;;;4.23;;
3795;SDS011;1913;50.660;7.834;2022-07-05T02:33:31;8.80;;;4.60;;
3795;SDS011;1913;50.660;7.834;2022-07-05T02:35:57;5.33;;;4.33;;
3795;SDS011;1913;50.660;7.834;2022-07-05T02:38:23;6.10;;;4.17;;
3795;SDS011;1913;50.660;7.834;2022-07-05T02:40:48;6.00;;;4.10;;
3795;SDS011;1913;50.660;7.834;2022-07-05T02:43:14;6.67;;;4.03;;
3795;SDS011;1913;50.660;7.834;2022-07-05T02:45:39;10.23;;;5.00;;
3795;SDS011;1913;50.660;7.834;2022-07-05T02:48:04;7.27;;;4.30;;
3795;SDS011;1913;50.660;7.834;2022-07-05T02:50:30;4.90;;;4.40;;
3795;SDS011;1913;50.660;7.834;2022-07-05T02:52:55;6.87;;;4.70;;
3795;SDS011;1913;50.660;7.834;2022-07-05T02:55:21;5.27;;;4.27;;
3795;SDS011;1913;50.660;7.834;2022-07-05T02:57:46;6.60;;;4.47;;
3795;SDS011;1913;50.660;7.834;2022-07-05T03:00:12;8.90;;;4.50;;
3795;SDS011;1913;50.660;7.834;2022-07-05T03:02:38;10.03;;;4.87;;
3795;SDS011;1913;50.660;7.834;2022-07-05T03:05:03;4.33;;;3.83;;
3795;SDS011;1913;50.660;7.834;2022-07-05T03:07:29;8.23;;;5.30;;
3795;SDS011;1913;50.660;7.834;2022-07-05T03:09:54;8.27;;;5.20;;
3795;SDS011;1913;50.660;7.834;2022-07-05T03:12:20;8.83;;;5.00;;
3795;SDS011;1913;50.660;7.834;2022-07-05T03:14:45;6.67;;;5.00;;
3795;SDS011;1913;50.660;7.834;2022-07-05T03:17:11;8.07;;;5.00;;
3795;SDS011;1913;50.660;7.834;2022-07-05T03:19:36;7.93;;;6.13;;
3795;SDS011;1913;50.660;7.834;2022-07-05T03:22:02;7.60;;;6.20;;
3795;SDS011;1913;50.660;7.834;2022-07-05T03:24:28;9.90;;;6.30;;
3795;SDS011;1913;50.660;7.834;2022-07-05T03:26:53;10.13;;;6.00;;
3795;SDS011;1913;50.660;7.834;2022-07-05T03:29:19;6.40;;;5.37;;
3795;SDS011;1913;50.660;7.834;2022-07-05T03:31:44;10.87;;;6.13;;
3795;SDS011;1913;50.660;7.834;2022-07-05T03:34:10;9.47;;;4.70;;
3795;SDS011;1913;50.660;7.834;2022-07-05T03:36:35;8.67;;;6.00;;
3795;SDS011;1913;50.660;7.834;2022-07-05T03:39:01;7.07;;;5.00;;
3795;SDS011;1913;50.660;7.834;2022-07-05T03:41:26;8.53;;;5.40;;
3795;SDS011;1913;50.660;7.834;2022-07-05T03:43:52;6.77;;;5.23;;
3795;SDS011;1913;50.660;7.834;2022-07-05T03:46:17;8.50;;;5.33;;
3795;SDS011;1913;50.660;7.834;2022-07-05T03:48:43;7.60;;;5.07;;
3795;SDS011;1913;50.660;7.834;2022-07-05T03:51:08;7.30;;;4.73;;
3795;SDS011;1913;50.660;7.834;2022-07-05T03:53:33;5.50;;;4.50;;
3795;SDS011;1913;50.660;7.834;2022-07-05T03:55:59;7.60;;;4.50;;
3795;SDS011;1913;50.660;7.834;2022-07-05T03:58:25;5.90;;;4.53;;
3795;SDS011;1913;50.660;7.834;2022-07-05T04:00:51;6.17;;;4.93;;
3795;SDS011;1913;50.660;7.834;2022-07-05T04:03:16;6.40;;;4.70;;
3795;SDS011;1913;50.660;7.834;2022-07-05T04:05:41;9.77;;;5.60;;
3795;SDS011;1913;50.660;7.834;2022-07-05T04:08:07;6.73;;;3.90;;
3795;SDS011;1913;50.660;7.834;2022-07-05T04:10:32;6.17;;;4.90;;
3795;SDS011;1913;50.660;7.834;2022-07-05T04:12:58;6.83;;;4.80;;
3795;SDS011;1913;50.660;7.834;2022-07-05T04:15:23;5.93;;;4.60;;
3795;SDS011;1913;50.660;7.834;2022-07-05T04:17:49;7.17;;;4.70;;
3795;SDS011;1913;50.660;7.834;2022-07-05T04:20:16;10.70;;;4.50;;
3795;SDS011;1913;50.660;7.834;2022-07-05T04:22:42;7.13;;;4.00;;
3795;SDS011;1913;50.660;7.834;2022-07-05T04:25:08;5.90;;;4.20;;
3795;SDS011;1913;50.660;7.834;2022-07-05T04:27:44;5.40;;;4.10;;
3795;SDS011;1913;50.660;7.834;2022-07-05T04:30:15;5.33;;;4.40;;
3795;SDS011;1913;50.660;7.834;2022-07-05T04:32:41;5.80;;;3.93;;
3795;SDS011;1913;50.660;7.834;2022-07-05T04:35:06;5.37;;;3.40;;
3795;SDS011;1913;50.660;7.834;2022-07-05T04:37:32;4.93;;;2.93;;
3795;SDS011;1913;50.660;7.834;2022-07-05T04:39:58;3.70;;;2.77;;
3795;SDS011;1913;50.660;7.834;2022-07-05T04:42:23;3.20;;;2.33;;
3795;SDS011;1913;50.660;7.834;2022-07-05T04:44:49;4.00;;;2.40;;
3795;SDS011;1913;50.660;7.834;2022-07-05T04:47:14;3.10;;;2.37;;
3795;SDS011;1913;50.660;7.834;2022-07-05T04:49:40;5.17;;;2.27;;
3795;SDS011;1913;50.660;7.834;2022-07-05T04:52:05;5.23;;;1.97;;
3795;SDS011;1913;50.660;7.834;2022-07-05T04:54:31;3.47;;;2.00;;
3795;SDS011;1913;50.660;7.834;2022-07-05T04:57:00;3.40;;;2.03;;
3795;SDS011;1913;50.660;7.834;2022-07-05T04:59:25;3.37;;;2.10;;
3795;SDS011;1913;50.660;7.834;2022-07-05T05:01:50;3.87;;;2.20;;
3795;SDS011;1913;50.660;7.834;2022-07-05T05:04:16;3.50;;;2.20;;
3795;SDS011;1913;50.660;7.834;2022-07-05T05:06:41;3.50;;;1.70;;
3795;SDS011;1913;50.660;7.834;2022-07-05T05:09:07;2.27;;;2.07;;
3795;SDS011;1913;50.660;7.834;2022-07-05T05:11:32;3.40;;;1.90;;
3795;SDS011;1913;50.660;7.834;2022-07-05T05:13:57;4.10;;;1.90;;
3795;SDS011;1913;50.660;7.834;2022-07-05T05:16:23;2.93;;;2.03;;
3795;SDS011;1913;50.660;7.834;2022-07-05T05:18:49;1.80;;;1.67;;
3795;SDS011;1913;50.660;7.834;2022-07-05T05:21:14;9.83;;;2.43;;
3795;SDS011;1913;50.660;7.834;2022-07-05T05:23:40;3.73;;;2.20;;
3795;SDS011;1913;50.660;7.834;2022-07-05T05:26:05;2.73;;;2.40;;
3795;SDS011;1913;50.660;7.834;2022-07-05T05:28:31;2.20;;;1.80;;
3795;SDS011;1913;50.660;7.834;2022-07-05T05:30:57;5.03;;;2.60;;
3795;SDS011;1913;50.660;7.834;2022-07-05T05:33:22;3.17;;;2.43;;
3795;SDS011;1913;50.660;7.834;2022-07-05T05:35:48;3.80;;;2.20;;
3795;SDS011;1913;50.660;7.834;2022-07-05T05:38:13;4.73;;;2.80;;
3795;SDS011;1913;50.660;7.834;2022-07-05T05:40:38;5.03;;;2.70;;
3795;SDS011;1913;50.660;7.834;2022-07-05T05:43:06;3.40;;;2.73;;
3795;SDS011;1913;50.660;7.834;2022-07-05T05:45:31;3.70;;;2.80;;
3795;SDS011;1913;50.660;7.834;2022-07-05T05:47:58;4.70;;;2.80;;
3795;SDS011;1913;50.660;7.834;2022-07-05T05:50:29;5.00;;;2.30;;
3795;SDS011;1913;50.660;7.834;2022-07-05T05:52:56;4.63;;;2.70;;
3795;SDS011;1913;50.660;7.834;2022-07-05T05:55:23;3.23;;;2.53;;
3795;SDS011;1913;50.660;7.834;2022-07-05T05:57:49;4.23;;;2.53;;
3795;SDS011;1913;50.660;7.834;2022-07-05T06:00:16;6.37;;;3.00;;
3795;SDS011;1913;50.660;7.834;2022-07-05T06:02:42;6.37;;;2.80;;
3795;SDS011;1913;50.660;7.834;2022-07-05T06:05:11;4.67;;;2.80;;
3795;SDS011;1913;50.660;7.834;2022-07-05T06:07:47;5.83;;;2.73;;
3795;SDS011;1913;50.660;7.834;2022-07-05T06:10:17;4.90;;;3.20;;
3795;SDS011;1913;50.660;7.834;2022-07-05T06:12:44;3.93;;;2.70;;
3795;SDS011;1913;50.660;7.834;2022-07-05T06:15:10;2.97;;;2.20;;
3795;SDS011;1913;50.660;7.834;2022-07-05T06:17:36;5.63;;;2.47;;
3795;SDS011;1913;50.660;7.834;2022-07-05T06:20:06;5.10;;;2.37;;
3795;SDS011;1913;50.660;7.834;2022-07-05T06:22:42;5.30;;;2.37;;
3795;SDS011;1913;50.660;7.834;2022-07-05T06:25:08;4.83;;;2.50;;
3795;SDS011;1913;50.660;7.834;2022-07-05T06:27:43;4.50;;;2.40;;
3795;SDS011;1913;50.660;7.834;2022-07-05T06:30:13;3.30;;;2.40;;
3795;SDS011;1913;50.660;7.834;2022-07-05T06:32:42;5.60;;;2.33;;
3795;SDS011;1913;50.660;7.834;2022-07-05T06:35:09;2.77;;;2.00;;
3795;SDS011;1913;50.660;7.834;2022-07-05T06:40:11;4.67;;;2.30;;
3795;SDS011;1913;50.660;7.834;2022-07-05T06:42:39;2.40;;;2.00;;
3795;SDS011;1913;50.660;7.834;2022-07-05T06:45:06;2.83;;;2.10;;
3795;SDS011;1913;50.660;7.834;2022-07-05T06:47:32;3.07;;;2.13;;
3795;SDS011;1913;50.660;7.834;2022-07-05T06:49:58;6.77;;;2.50;;
3795;SDS011;1913;50.660;7.834;2022-07-05T06:52:40;3.53;;;2.43;;
3795;SDS011;1913;50.660;7.834;2022-07-05T06:55:14;5.00;;;2.67;;
3795;SDS011;1913;50.660;7.834;2022-07-05T06:57:58;3.27;;;2.67;;
3795;SDS011;1913;50.660;7.834;2022-07-05T07:00:31;5.30;;;2.70;;
3795;SDS011;1913;50.660;7.834;2022-07-05T07:03:00;7.70;;;3.00;;
3795;SDS011;1913;50.660;7.834;2022-07-05T07:05:26;4.80;;;2.40;;
3795;SDS011;1913;50.660;7.834;2022-07-05T07:07:52;6.87;;;3.10;;
3795;SDS011;1913;50.660;7.834;2022-07-05T07:10:36;4.67;;;2.87;;
3795;SDS011;1913;50.660;7.834;2022-07-05T07:13:02;5.13;;;3.00;;
3795;SDS011;1913;50.660;7.834;2022-07-05T07:15:28;6.17;;;2.80;;
3795;SDS011;1913;50.660;7.834;2022-07-05T07:17:54;5.53;;;2.90;;
3795;SDS011;1913;50.660;7.834;2022-07-05T07:20:20;6.07;;;2.73;;
3795;SDS011;1913;50.660;7.834;2022-07-05T07:22:46;3.67;;;2.70;;
3795;SDS011;1913;50.660;7.834;2022-07-05T07:25:11;5.77;;;2.93;;
3795;SDS011;1913;50.660;7.834;2022-07-05T07:27:41;5.07;;;2.70;;
3795;SDS011;1913;50.660;7.834;2022-07-05T07:30:11;4.40;;;3.07;;
3795;SDS011;1913;50.660;7.834;2022-07-05T07:32:38;4.33;;;3.37;;
3795;SDS011;1913;50.660;7.834;2022-07-05T07:35:04;4.20;;;3.30;;
3795;SDS011;1913;50.660;7.834;2022-07-05T07:37:30;4.60;;;2.50;;
3795;SDS011;1913;50.660;7.834;2022-07-05T07:39:56;4.10;;;2.67;;
3795;SDS011;1913;50.660;7.834;2022-07-05T07:42:21;6.53;;;2.80;;
3795;SDS011;1913;50.660;7.834;2022-07-05T07:44:46;3.67;;;2.73;;
3795;SDS011;1913;50.660;7.834;2022-07-05T07:47:12;5.73;;;2.90;;
3795;SDS011;1913;50.660;7.834;2022-07-05T07:49:37;5.30;;;2.87;;
3795;SDS011;1913;50.660;7.834;2022-07-05T07:52:03;5.40;;;2.80;;
3795;SDS011;1913;50.660;7.834;2022-07-05T07:54:29;5.40;;;3.10;;
3795;SDS011;1913;50.660;7.834;2022-07-05T07:56:55;4.90;;;3.10;;
3795;SDS011;1913;50.660;7.834;2022-07-05T07:59:20;5.93;;;2.97;;
3795;SDS011;1913;50.660;7.834;2022-07-05T08:01:45;4.40;;;2.90;;
3795;SDS011;1913;50.660;7.834;2022-07-05T08:04:11;3.93;;;2.67;;
3795;SDS011;1913;50.660;7.834;2022-07-05T08:06:38;4.00;;;2.90;;
3795;SDS011;1913;50.660;7.834;2022-07-05T08:09:03;3.33;;;2.87;;
3795;SDS011;1913;50.660;7.834;2022-07-05T08:11:29;6.60;;;3.40;;
3795;SDS011;1913;50.660;7.834;2022-07-05T08:13:54;4.70;;;2.80;;
3795;SDS011;1913;50.660;7.834;2022-07-05T08:16:20;4.43;;;2.77;;
3795;SDS011;1913;50.660;7.834;2022-07-05T08:18:45;5.27;;;3.13;;
3795;SDS011;1913;50.660;7.834;2022-07-05T08:21:29;5.20;;;2.50;;
3795;SDS011;1913;50.660;7.834;2022-07-05T08:26:30;3.60;;;3.13;;
3795;SDS011;1913;50.660;7.834;2022-07-05T08:28:56;3.90;;;3.00;;
3795;SDS011;1913;50.660;7.834;2022-07-05T08:31:30;6.53;;;3.23;;
3795;SDS011;1913;50.660;7.834;2022-07-05T08:33:56;3.83;;;3.10;;
3795;SDS011;1913;50.660;7.834;2022-07-05T08:36:22;7.00;;;3.53;;
3795;SDS011;1913;50.660;7.834;2022-07-05T08:38:48;6.97;;;3.13;;
3795;SDS011;1913;50.660;7.834;2022-07-05T08:41:13;9.07;;;4.00;;
3795;SDS011;1913;50.660;7.834;2022-07-05T08:43:46;5.90;;;3.40;;
3795;SDS011;1913;50.660;7.834;2022-07-05T08:46:16;4.07;;;3.17;;
3795;SDS011;1913;50.660;7.834;2022-07-05T08:48:43;6.00;;;3.27;;
3795;SDS011;1913;50.660;7.834;2022-07-05T08:51:15;6.13;;;3.20;;
3795;SDS011;1913;50.660;7.834;2022-07-05T08:53:42;5.63;;;3.10;;
3795;SDS011;1913;50.660;7.834;2022-07-05T08:56:09;4.60;;;2.90;;
3795;SDS011;1913;50.660;7.834;2022-07-05T08:58:36;4.37;;;3.37;;
3795;SDS011;1913;50.660;7.834;2022-07-05T09:01:02;8.63;;;3.70;;
3795;SDS011;1913;50.660;7.834;2022-07-05T09:03:47;4.87;;;3.27;;
3795;SDS011;1913;50.660;7.834;2022-07-05T09:06:17;4.93;;;3.47;;
3795;SDS011;1913;50.660;7.834;2022-07-05T09:08:45;4.90;;;3.33;;
3795;SDS011;1913;50.660;7.834;2022-07-05T09:11:13;6.40;;;3.77;;
3795;SDS011;1913;50.660;7.834;2022-07-05T09:13:41;5.33;;;3.30;;
3795;SDS011;1913;50.660;7.834;2022-07-05T09:16:09;7.17;;;3.93;;
3795;SDS011;1913;50.660;7.834;2022-07-05T09:18:50;5.10;;;3.63;;
3795;SDS011;1913;50.660;7.834;2022-07-05T09:21:17;8.93;;;4.67;;
3795;SDS011;1913;50.660;7.834;2022-07-05T09:23:44;5.17;;;4.70;;
3795;SDS011;1913;50.660;7.834;2022-07-05T09:26:21;10.07;;;4.70;;
3795;SDS011;1913;50.660;7.834;2022-07-05T09:28:56;6.33;;;4.13;;
3795;SDS011;1913;50.660;7.834;2022-07-05T09:31:29;5.90;;;3.97;;
3795;SDS011;1913;50.660;7.834;2022-07-05T09:34:05;4.03;;;3.60;;
3795;SDS011;1913;50.660;7.834;2022-07-05T09:36:48;5.53;;;3.20;;
3795;SDS011;1913;50.660;7.834;2022-07-05T09:44:52;8.40;;;4.10;;
3795;SDS011;1913;50.660;7.834;2022-07-05T09:47:28;5.93;;;3.60;;
3795;SDS011;1913;50.660;7.834;2022-07-05T09:49:55;5.43;;;4.27;;
3795;SDS011;1913;50.660;7.834;2022-07-05T09:57:32;6.03;;;4.03;;
3795;SDS011;1913;50.660;7.834;2022-07-05T10:05:08;6.37;;;3.90;;
3795;SDS011;1913;50.660;7.834;2022-07-05T10:07:33;6.83;;;3.90;;
3795;SDS011;1913;50.660;7.834;2022-07-05T10:10:02;3.50;;;3.20;;
3795;SDS011;1913;50.660;7.834;2022-07-05T10:12:28;4.97;;;3.30;;
3795;SDS011;1913;50.660;7.834;2022-07-05T10:14:54;7.13;;;3.73;;
3795;SDS011;1913;50.660;7.834;2022-07-05T10:17:22;7.17;;;4.30;;
3795;SDS011;1913;50.660;7.834;2022-07-05T10:19:48;7.63;;;3.90;;
3795;SDS011;1913;50.660;7.834;2022-07-05T10:22:16;5.93;;;3.80;;
3795;SDS011;1913;50.660;7.834;2022-07-05T10:24:41;6.07;;;4.07;;
3795;SDS011;1913;50.660;7.834;2022-07-05T10:27:07;5.20;;;3.50;;
3795;SDS011;1913;50.660;7.834;2022-07-05T10:29:33;3.97;;;2.80;;
3795;SDS011;1913;50.660;7.834;2022-07-05T10:32:00;8.53;;;3.67;;
3795;SDS011;1913;50.660;7.834;2022-07-05T10:34:26;4.60;;;2.80;;
3795;SDS011;1913;50.660;7.834;2022-07-05T10:36:54;3.83;;;2.60;;
3795;SDS011;1913;50.660;7.834;2022-07-05T10:39:19;8.30;;;3.40;;
3795;SDS011;1913;50.660;7.834;2022-07-05T10:41:48;16.30;;;3.53;;
3795;SDS011;1913;50.660;7.834;2022-07-05T10:44:25;5.27;;;2.93;;
3795;SDS011;1913;50.660;7.834;2022-07-05T10:47:08;5.57;;;2.87;;
3795;SDS011;1913;50.660;7.834;2022-07-05T10:49:37;5.23;;;3.13;;
3795;SDS011;1913;50.660;7.834;2022-07-05T10:52:03;3.20;;;2.40;;
3795;SDS011;1913;50.660;7.834;2022-07-05T10:54:29;3.20;;;2.63;;
3795;SDS011;1913;50.660;7.834;2022-07-05T11:00:04;14.47;;;2.63;;
3795;SDS011;1913;50.660;7.834;2022-07-05T11:02:30;3.40;;;2.33;;
3795;SDS011;1913;50.660;7.834;2022-07-05T11:04:55;4.10;;;2.37;;
3795;SDS011;1913;50.660;7.834;2022-07-05T11:10:24;2.20;;;2.00;;
3795;SDS011;1913;50.660;7.834;2022-07-05T11:12:51;6.10;;;2.30;;
3795;SDS011;1913;50.660;7.834;2022-07-05T11:15:16;4.70;;;2.30;;
3795;SDS011;1913;50.660;7.834;2022-07-05T11:17:42;4.60;;;2.00;;
3795;SDS011;1913;50.660;7.834;2022-07-05T11:25:27;2.00;;;1.77;;
3795;SDS011;1913;50.660;7.834;2022-07-05T11:30:58;3.80;;;2.27;;
3795;SDS011;1913;50.660;7.834;2022-07-05T11:33:34;5.70;;;2.43;;
3795;SDS011;1913;50.660;7.834;2022-07-05T11:36:00;2.50;;;1.90;;
3795;SDS011;1913;50.660;7.834;2022-07-05T11:38:29;5.33;;;2.20;;
3795;SDS011;1913;50.660;7.834;2022-07-05T11:40:56;3.50;;;2.23;;
3795;SDS011;1913;50.660;7.834;2022-07-05T11:43:36;4.43;;;2.40;;
3795;SDS011;1913;50.660;7.834;2022-07-05T11:46:02;2.30;;;2.10;;
3795;SDS011;1913;50.660;7.834;2022-07-05T11:48:28;3.30;;;2.00;;
3795;SDS011;1913;50.660;7.834;2022-07-05T11:50:54;2.03;;;1.80;;
3795;SDS011;1913;50.660;7.834;2022-07-05T11:53:28;5.03;;;1.90;;
3795;SDS011;1913;50.660;7.834;2022-07-05T11:55:58;5.13;;;1.90;;
3795;SDS011;1913;50.660;7.834;2022-07-05T11:58:33;3.30;;;1.67;;
3795;SDS011;1913;50.660;7.834;2022-07-05T12:00:59;4.73;;;1.90;;
3795;SDS011;1913;50.660;7.834;2022-07-05T12:03:25;6.70;;;2.17;;
3795;SDS011;1913;50.660;7.834;2022-07-05T12:05:51;2.83;;;1.83;;
3795;SDS011;1913;50.660;7.834;2022-07-05T12:08:21;3.23;;;1.70;;
3795;SDS011;1913;50.660;7.834;2022-07-05T12:10:48;3.47;;;1.83;;
3795;SDS011;1913;50.660;7.834;2022-07-05T12:13:46;2.53;;;2.33;;
3795;SDS011;1913;50.660;7.834;2022-07-05T12:16:13;1.90;;;1.70;;
3795;SDS011;1913;50.660;7.834;2022-07-05T12:18:46;3.57;;;1.90;;
3795;SDS011;1913;50.660;7.834;2022-07-05T12:21:19;2.80;;;1.90;;
3795;SDS011;1913;50.660;7.834;2022-07-05T12:23:46;3.60;;;2.10;;
3795;SDS011;1913;50.660;7.834;2022-07-05T12:26:12;4.10;;;2.50;;
3795;SDS011;1913;50.660;7.834;2022-07-05T12:28:38;3.00;;;1.70;;
3795;SDS011;1913;50.660;7.834;2022-07-05T12:33:48;4.37;;;1.80;;
3795;SDS011;1913;50.660;7.834;2022-07-05T12:36:15;2.70;;;2.00;;
3795;SDS011;1913;50.660;7.834;2022-07-05T12:38:42;4.73;;;1.90;;
3795;SDS011;1913;50.660;7.834;2022-07-05T12:41:08;5.47;;;2.20;;
3795;SDS011;1913;50.660;7.834;2022-07-05T12:43:53;4.90;;;2.00;;
3795;SDS011;1913;50.660;7.834;2022-07-05T12:46:21;3.57;;;1.93;;
3795;SDS011;1913;50.660;7.834;2022-07-05T12:49:01;3.17;;;2.00;;
3795;SDS011;1913;50.660;7.834;2022-07-05T12:51:33;4.67;;;2.07;;
3795;SDS011;1913;50.660;7.834;2022-07-05T12:54:00;3.60;;;2.10;;
3795;SDS011;1913;50.660;7.834;2022-07-05T12:56:49;7.37;;;2.10;;
3795;SDS011;1913;50.660;7.834;2022-07-05T12:59:34;2.37;;;2.17;;
3795;SDS011;1913;50.660;7.834;2022-07-05T13:01:59;2.30;;;2.00;;
3795;SDS011;1913;50.660;7.834;2022-07-05T13:04:25;5.43;;;2.10;;
3795;SDS011;1913;50.660;7.834;2022-07-05T13:12:05;2.80;;;1.90;;
3795;SDS011;1913;50.660;7.834;2022-07-05T13:14:32;2.40;;;1.97;;
3795;SDS011;1913;50.660;7.834;2022-07-05T13:16:57;2.47;;;2.00;;
3795;SDS011;1913;50.660;7.834;2022-07-05T13:19:23;5.63;;;2.10;;
3795;SDS011;1913;50.660;7.834;2022-07-05T13:21:48;3.93;;;1.93;;
3795;SDS011;1913;50.660;7.834;2022-07-05T13:24:14;3.17;;;2.00;;
3795;SDS011;1913;50.660;7.834;2022-07-05T13:26:39;3.37;;;2.23;;
3795;SDS011;1913;50.660;7.834;2022-07-05T13:29:05;3.23;;;2.10;;
3795;SDS011;1913;50.660;7.834;2022-07-05T13:31:30;4.70;;;2.30;;
3795;SDS011;1913;50.660;7.834;2022-07-05T13:33:56;4.67;;;2.40;;
3795;SDS011;1913;50.660;7.834;2022-07-05T13:36:22;3.10;;;2.20;;
3795;SDS011;1913;50.660;7.834;2022-07-05T13:38:49;4.40;;;1.90;;
3795;SDS011;1913;50.660;7.834;2022-07-05T13:41:21;5.90;;;2.20;;
3795;SDS011;1913;50.660;7.834;2022-07-05T13:43:56;3.17;;;2.17;;
3795;SDS011;1913;50.660;7.834;2022-07-05T13:46:21;4.40;;;2.33;;
3795;SDS011;1913;50.660;7.834;2022-07-05T13:48:46;3.10;;;2.20;;
3795;SDS011;1913;50.660;7.834;2022-07-05T13:51:12;3.93;;;2.10;;
3795;SDS011;1913;50.660;7.834;2022-07-05T13:53:37;3.23;;;2.00;;
3795;SDS011;1913;50.660;7.834;2022-07-05T13:56:03;2.60;;;2.00;;
3795;SDS011;1913;50.660;7.834;2022-07-05T13:58:30;3.83;;;2.13;;
3795;SDS011;1913;50.660;7.834;2022-07-05T14:00:56;6.40;;;2.30;;
3795;SDS011;1913;50.660;7.834;2022-07-05T14:03:21;4.53;;;2.40;;
3795;SDS011;1913;50.660;7.834;2022-07-05T14:05:47;3.60;;;2.30;;
3795;SDS011;1913;50.660;7.834;2022-07-05T14:08:13;8.20;;;2.30;;
3795;SDS011;1913;50.660;7.834;2022-07-05T14:10:39;2.30;;;2.10;;
3795;SDS011;1913;50.660;7.834;2022-07-05T14:13:05;2.80;;;1.80;;
3795;SDS011;1913;50.660;7.834;2022-07-05T14:15:31;4.40;;;2.63;;
3795;SDS011;1913;50.660;7.834;2022-07-05T14:17:57;4.00;;;2.27;;
3795;SDS011;1913;50.660;7.834;2022-07-05T14:20:27;4.30;;;1.90;;
3795;SDS011;1913;50.660;7.834;2022-07-05T14:22:53;3.80;;;2.47;;
3795;SDS011;1913;50.660;7.834;2022-07-05T14:25:18;3.87;;;2.23;;
3795;SDS011;1913;50.660;7.834;2022-07-05T14:27:45;6.10;;;2.23;;
3795;SDS011;1913;50.660;7.834;2022-07-05T14:30:10;6.53;;;2.10;;
3795;SDS011;1913;50.660;7.834;2022-07-05T14:32:36;3.83;;;2.00;;
3795;SDS011;1913;50.660;7.834;2022-07-05T14:35:02;3.40;;;2.20;;
3795;SDS011;1913;50.660;7.834;2022-07-05T14:37:29;2.73;;;2.00;;
3795;SDS011;1913;50.660;7.834;2022-07-05T14:42:23;3.73;;;2.07;;
3795;SDS011;1913;50.660;7.834;2022-07-05T14:44:49;4.33;;;2.00;;
3795;SDS011;1913;50.660;7.834;2022-07-05T14:47:15;5.10;;;1.90;;
3795;SDS011;1913;50.660;7.834;2022-07-05T14:49:40;4.10;;;1.87;;
3795;SDS011;1913;50.660;7.834;2022-07-05T14:52:06;3.90;;;2.10;;
3795;SDS011;1913;50.660;7.834;2022-07-05T14:54:34;7.57;;;2.47;;
3795;SDS011;1913;50.660;7.834;2022-07-05T14:57:31;4.30;;;1.87;;
3795;SDS011;1913;50.660;7.834;2022-07-05T15:00:11;3.33;;;2.10;;
3795;SDS011;1913;50.660;7.834;2022-07-05T15:02:41;4.10;;;2.30;;
3795;SDS011;1913;50.660;7.834;2022-07-05T15:05:07;5.53;;;2.10;;
3795;SDS011;1913;50.660;7.834;2022-07-05T15:07:37;3.07;;;2.30;;
3795;SDS011;1913;50.660;7.834;2022-07-05T15:10:04;2.90;;;2.10;;
3795;SDS011;1913;50.660;7.834;2022-07-05T15:12:30;2.80;;;2.30;;
3795;SDS011;1913;50.660;7.834;2022-07-05T15:14:55;7.93;;;2.23;;
3795;SDS011;1913;50.660;7.834;2022-07-05T15:17:20;4.10;;;1.93;;
3795;SDS011;1913;50.660;7.834;2022-07-05T15:19:46;5.20;;;2.07;;
3795;SDS011;1913;50.660;7.834;2022-07-05T15:22:11;4.57;;;2.20;;
3795;SDS011;1913;50.660;7.834;2022-07-05T15:24:37;3.27;;;1.77;;
3795;SDS011;1913;50.660;7.834;2022-07-05T15:27:02;3.83;;;1.77;;
3795;SDS011;1913;50.660;7.834;2022-07-05T15:29:28;4.20;;;1.93;;
3795;SDS011;1913;50.660;7.834;2022-07-05T15:31:55;3.00;;;1.90;;
3795;SDS011;1913;50.660;7.834;2022-07-05T15:34:21;3.20;;;1.77;;
3795;SDS011;1913;50.660;7.834;2022-07-05T15:36:46;2.80;;;1.80;;
3795;SDS011;1913;50.660;7.834;2022-07-05T15:39:12;3.37;;;1.90;;
3795;SDS011;1913;50.660;7.834;2022-07-05T15:41:37;6.10;;;2.00;;
3795;SDS011;1913;50.660;7.834;2022-07-05T15:44:03;4.43;;;2.20;;
3795;SDS011;1913;50.660;7.834;2022-07-05T15:46:29;2.50;;;1.90;;
3795;SDS011;1913;50.660;7.834;2022-07-05T15:49:14;2.80;;;2.03;;
3795;SDS011;1913;50.660;7.834;2022-07-05T15:51:41;3.33;;;1.77;;
3795;SDS011;1913;50.660;7.834;2022-07-05T15:54:06;3.97;;;2.00;;
3795;SDS011;1913;50.660;7.834;2022-07-05T15:56:32;4.03;;;1.80;;
3795;SDS011;1913;50.660;7.834;2022-07-05T15:58:58;5.93;;;2.13;;
3795;SDS011;1913;50.660;7.834;2022-07-05T16:01:23;3.37;;;1.90;;
3795;SDS011;1913;50.660;7.834;2022-07-05T16:03:48;3.20;;;1.90;;
3795;SDS011;1913;50.660;7.834;2022-07-05T16:06:14;4.87;;;1.60;;